Home   Weather   Spain   Huelva   Past weeks
Flag for Spain

Past Weather in Huelva, Spain — Yesterday and Last 2 Weeks

Currently: 73 °F. Passing clouds. (Weather station: Rota Airport, Spain). See more current weather

Past Weather in Huelva — Graph

°F

Huelva Temperature Yesterday

Maximum temperature yesterday: 77 °F (at 2:30 pm)
Minimum temperature yesterday: 54 °F (at 8:00 am)
Average temperature yesterday: 67 °F

High & Low Weather Summary for the Past Weeks

 TemperatureHumidityPressure
High84 °F (Oct 14, 4:30 pm)94% (Oct 13, 10:00 am)30.18 "Hg (Oct 13, 10:00 am)
Low52 °F (Oct 22, 9:00 am)28% (Oct 14, 3:00 pm)29.92 "Hg (Oct 11, 6:00 pm)
Average70 °F63%30.08 "Hg
* Reported Oct 11 6:00 pm — Oct 26 6:30 pm, Huelva. Weather by CustomWeather, © 2021

Note: Actual official high and low records may vary slightly from our data, if they occured in-between our weather recording intervals... More about our weather records

Huelva Weather History for the Previous 24 Hours

Scroll right to see more
 ConditionsComfort  
Time TempWeatherWind HumidityBarometerVisibility
6:30 pm
Tue, Oct 26
73 °FPassing clouds.7 mph50%30.07 "HgN/A
6:00 pm75 °FPassing clouds.2 mph50%30.07 "HgN/A
5:30 pm75 °FPassing clouds.7 mph50%30.07 "HgN/A
5:00 pm75 °FPassing clouds.7 mph47%30.04 "HgN/A
4:30 pm73 °FPassing clouds.8 mph53%30.04 "HgN/A
4:00 pm75 °FPassing clouds.13 mph47%30.04 "HgN/A
3:30 pm75 °FPassing clouds.7 mph47%30.07 "HgN/A
3:00 pm77 °FPassing clouds.9 mph36%30.07 "HgN/A
2:30 pm77 °FSunny.7 mph36%30.09 "Hg10 mi
2:00 pm77 °FPassing clouds.9 mph36%30.09 "HgN/A
1:30 pm77 °FPassing clouds.8 mph42%30.09 "HgN/A
1:00 pm75 °FSunny.10 mph44%30.09 "Hg10 mi
12:30 pm73 °FPassing clouds.10 mph50%30.12 "HgN/A
12:00 pm72 °FPassing clouds.13 mph53%30.12 "HgN/A
11:30 am70 °FPassing clouds.8 mph57%30.12 "HgN/A
11:00 am68 °FPassing clouds.6 mph60%30.12 "HgN/A
10:30 am66 °FPassing clouds.6 mph68%30.12 "HgN/A
10:00 am61 °FPassing clouds.5 mph68%30.12 "HgN/A
9:30 am57 °FPassing clouds.3 mph72%30.09 "HgN/A
9:00 am57 °FSunny.6 mph72%30.09 "Hg10 mi
8:30 am57 °FPassing clouds.6 mph72%30.07 "HgN/A
8:00 am59 °FClear.6 mph68%30.07 "Hg10 mi
7:30 am57 °FPassing clouds.7 mph72%30.07 "HgN/A
7:00 am57 °FClear.7 mph72%30.07 "Hg10 mi
1:00 am64 °FClear.2 mph64%30.09 "Hg10 mi
12:30 am64 °FClear.2 mph68%30.09 "Hg10 mi
12:00 am64 °FClear.3 mph64%30.09 "Hg10 mi
11:30 pm
Mon, Oct 25
64 °FClear.2 mph68%30.09 "Hg10 mi
11:00 pm66 °FClear.1 mph64%30.09 "Hg10 mi
10:30 pm68 °FClear.2 mph60%30.09 "Hg10 mi
10:00 pm68 °FPassing clouds.5 mph60%30.09 "HgN/A
9:30 pm68 °FClear.6 mph69%30.09 "Hg10 mi
9:00 pm66 °FPassing clouds.3 mph78%30.07 "HgN/A
8:30 pm66 °FClear.6 mph78%30.07 "Hg10 mi
8:00 pm68 °FClear.6 mph73%30.07 "Hg10 mi
7:30 pm68 °FSunny.7 mph73%30.07 "Hg10 mi
7:00 pm70 °FPassing clouds.6 mph69%30.07 "HgN/A
Weather by CustomWeather, © 2021

See weather overview